Time,TemperatureF,DewpointF,PressureIn,WindDirection,WindDirectionDegrees,WindSpeedMPH,WindSpeedGustMPH,Humidity,HourlyPrecipIn,Conditions,Clouds,dailyrainin,SolarRadiationWatts/m^2,SoftwareType,DateUTC
2013-05-11 00:01:00,62.5,60.7,29.86,WSW,240,4.0,5.0,94,0.00,,,0.00,0,Wunderground v.1.15,2013-05-11 04:01:00,
2013-05-11 00:06:00,62.5,60.7,29.86,SW,235,6.0,6.0,94,0.00,,,0.00,0,Wunderground v.1.15,2013-05-11 04:06:00,
2013-05-11 00:11:00,62.5,60.7,29.86,SW,232,5.0,8.0,94,0.00,,,0.01,0,Wunderground v.1.15,2013-05-11 04:11:00,
2013-05-11 00:16:00,62.5,60.7,29.86,SW,227,3.0,8.0,94,0.00,,,0.01,0,Wunderground v.1.15,2013-05-11 04:16:00,
2013-05-11 00:21:00,62.5,60.7,29.86,West,262,3.0,5.0,94,0.00,,,0.01,0,Wunderground v.1.15,2013-05-11 04:21:00,
2013-05-11 00:26:00,62.5,60.7,29.86,SW,234,4.0,5.0,94,0.00,,,0.01,0,Wunderground v.1.15,2013-05-11 04:26:00,
2013-05-11 00:31:00,62.6,60.8,29.86,WSW,239,2.0,6.0,94,0.00,,,0.01,0,Wunderground v.1.15,2013-05-11 04:31:00,
2013-05-11 00:36:00,62.5,60.7,29.86,WSW,242,4.0,6.0,94,0.00,,,0.01,0,Wunderground v.1.15,2013-05-11 04:36:00,
2013-05-11 00:41:00,62.6,60.8,29.86,SW,234,3.0,7.0,94,0.00,,,0.01,0,Wunderground v.1.15,2013-05-11 04:41:00,
2013-05-11 00:46:00,62.5,60.7,29.86,WSW,257,6.0,7.0,94,0.00,,,0.01,0,Wunderground v.1.15,2013-05-11 04:46:00,
2013-05-11 00:51:00,62.6,60.8,29.87,WSW,248,6.0,7.0,94,0.00,,,0.01,0,Wunderground v.1.15,2013-05-11 04:51:00,
2013-05-11 00:56:00,62.6,60.8,29.86,WSW,243,2.0,9.0,94,0.00,,,0.01,0,Wunderground v.1.15,2013-05-11 04:56:00,
2013-05-11 01:01:00,62.6,60.8,29.87,WSW,249,6.0,7.0,94,0.00,,,0.01,0,Wunderground v.1.15,2013-05-11 05:01:00,
2013-05-11 01:06:00,62.6,60.8,29.87,WSW,242,8.0,8.0,94,0.00,,,0.01,0,Wunderground v.1.15,2013-05-11 05:06:00,
2013-05-11 01:11:00,62.6,60.8,29.87,SW,234,6.0,6.0,94,0.00,,,0.01,0,Wunderground v.1.15,2013-05-11 05:11:00,
2013-05-11 01:16:00,62.6,60.8,29.87,West,268,4.0,9.0,94,0.00,,,0.01,0,Wunderground v.1.15,2013-05-11 05:16:00,
2013-05-11 01:21:00,62.6,60.8,29.87,West,267,3.0,6.0,94,0.00,,,0.01,0,Wunderground v.1.15,2013-05-11 05:21:00,
2013-05-11 01:26:00,62.6,60.8,29.87,West,259,2.0,9.0,94,0.00,,,0.01,0,Wunderground v.1.15,2013-05-11 05:26:00,
2013-05-11 01:31:00,62.6,60.8,29.86,WSW,254,5.0,6.0,94,0.00,,,0.01,0,Wunderground v.1.15,2013-05-11 05:31:00,
2013-05-11 01:36:00,62.6,60.8,29.86,WSW,256,5.0,8.0,94,0.00,,,0.01,0,Wunderground v.1.15,2013-05-11 05:36:00,
2013-05-11 01:41:00,62.6,60.8,29.86,WSW,249,5.0,7.0,94,0.00,,,0.01,0,Wunderground v.1.15,2013-05-11 05:41:00,
2013-05-11 01:46:00,62.6,60.8,29.85,West,267,3.0,7.0,94,0.00,,,0.01,0,Wunderground v.1.15,2013-05-11 05:46:00,
2013-05-11 01:51:00,62.6,60.8,29.85,West,275,4.0,6.0,94,0.00,,,0.01,0,Wunderground v.1.15,2013-05-11 05:51:00,
2013-05-11 01:56:00,62.6,60.8,29.85,West,273,3.0,6.0,94,0.00,,,0.01,0,Wunderground v.1.15,2013-05-11 05:56:00,
2013-05-11 02:01:00,62.6,60.8,29.86,West,277,5.0,9.0,94,0.00,,,0.01,0,Wunderground v.1.15,2013-05-11 06:01:00,
2013-05-11 02:06:00,62.5,60.7,29.86,West,267,8.0,9.0,94,0.00,,,0.01,0,Wunderground v.1.15,2013-05-11 06:06:00,
2013-05-11 02:11:00,62.5,60.7,29.84,SW,223,3.0,6.0,94,0.00,,,0.01,0,Wunderground v.1.15,2013-05-11 06:11:00,
2013-05-11 02:16:00,62.4,60.7,29.85,WNW,282,7.0,8.0,94,0.00,,,0.01,0,Wunderground v.1.15,2013-05-11 06:16:00,
2013-05-11 02:21:00,62.4,60.7,29.86,West,278,6.0,7.0,94,0.00,,,0.01,0,Wunderground v.1.15,2013-05-11 06:21:00,
2013-05-11 02:26:00,62.3,60.6,29.85,West,271,5.0,8.0,94,0.00,,,0.01,0,Wunderground v.1.15,2013-05-11 06:26:00,
2013-05-11 02:31:00,62.3,60.6,29.86,WNW,291,5.0,11.0,94,0.00,,,0.01,0,Wunderground v.1.15,2013-05-11 06:31:00,
2013-05-11 02:36:00,62.2,60.5,29.86,NW,322,8.0,11.0,94,0.00,,,0.01,0,Wunderground v.1.15,2013-05-11 06:36:00,
2013-05-11 02:41:00,62.1,60.4,29.86,NW,311,3.0,9.0,94,0.00,,,0.01,0,Wunderground v.1.15,2013-05-11 06:41:00,
2013-05-11 02:46:00,62.0,60.0,29.85,WNW,288,8.0,14.0,93,0.00,,,0.01,0,Wunderground v.1.15,2013-05-11 06:46:00,
2013-05-11 02:51:00,62.0,60.0,29.85,NW,304,4.0,10.0,93,0.00,,,0.01,0,Wunderground v.1.15,2013-05-11 06:51:00,
2013-05-11 02:56:00,61.9,59.9,29.85,NW,304,4.0,11.0,93,0.00,,,0.01,0,Wunderground v.1.15,2013-05-11 06:56:00,
2013-05-11 03:01:00,61.8,59.8,29.86,WNW,298,8.0,11.0,93,0.00,,,0.01,0,Wunderground v.1.15,2013-05-11 07:01:00,
2013-05-11 03:06:00,61.7,59.7,29.86,NW,323,3.0,11.0,93,0.00,,,0.01,0,Wunderground v.1.15,2013-05-11 07:06:00,
2013-05-11 03:11:00,61.6,59.6,29.85,West,280,7.0,11.0,93,0.00,,,0.01,0,Wunderground v.1.15,2013-05-11 07:11:00,
2013-05-11 03:16:00,61.4,59.1,29.84,WNW,302,3.0,11.0,92,0.00,,,0.01,0,Wunderground v.1.15,2013-05-11 07:16:00,
2013-05-11 03:21:00,61.3,59.3,29.84,WNW,288,5.0,9.0,93,0.00,,,0.01,0,Wunderground v.1.15,2013-05-11 07:21:00,
2013-05-11 03:26:00,61.2,59.2,29.84,West,279,4.0,9.0,93,0.00,,,0.01,0,Wunderground v.1.15,2013-05-11 07:26:00,
2013-05-11 03:31:00,61.2,59.2,29.84,West,280,6.0,9.0,93,0.00,,,0.01,0,Wunderground v.1.15,2013-05-11 07:31:00,
2013-05-11 03:36:00,61.1,59.1,29.84,WNW,290,5.0,9.0,93,0.00,,,0.01,0,Wunderground v.1.15,2013-05-11 07:36:00,
2013-05-11 03:41:00,61.1,59.1,29.85,WNW,298,4.0,9.0,93,0.00,,,0.01,0,Wunderground v.1.15,2013-05-11 07:41:00,
2013-05-11 03:46:00,61.1,59.1,29.85,WNW,293,4.0,9.0,93,0.00,,,0.01,0,Wunderground v.1.15,2013-05-11 07:46:00,
2013-05-11 03:51:00,61.1,59.1,29.85,WNW,298,6.0,6.0,93,0.00,,,0.01,0,Wunderground v.1.15,2013-05-11 07:51:00,
2013-05-11 03:56:00,61.1,59.4,29.85,WNW,290,3.0,7.0,94,0.00,,,0.01,0,Wunderground v.1.15,2013-05-11 07:56:00,
2013-05-11 04:01:00,61.1,59.4,29.85,WNW,290,6.0,7.0,94,0.00,,,0.01,0,Wunderground v.1.15,2013-05-11 08:01:00,
2013-05-11 04:06:00,61.1,59.4,29.85,WNW,295,6.0,8.0,94,0.00,,,0.01,0,Wunderground v.1.15,2013-05-11 08:06:00,
2013-05-11 04:11:00,61.0,59.3,29.85,NNW,327,4.0,7.0,94,0.00,,,0.01,0,Wunderground v.1.15,2013-05-11 08:11:00,
2013-05-11 04:16:00,61.0,59.3,29.85,NW,311,3.0,8.0,94,0.00,,,0.01,0,Wunderground v.1.15,2013-05-11 08:16:00,
2013-05-11 04:21:00,61.0,59.3,29.85,NW,314,3.0,7.0,94,0.00,,,0.01,0,Wunderground v.1.15,2013-05-11 08:21:00,
2013-05-11 04:26:00,60.9,59.2,29.85,NW,315,2.0,7.0,94,0.00,,,0.01,0,Wunderground v.1.15,2013-05-11 08:26:00,
2013-05-11 04:31:00,60.9,59.2,29.85,NNW,336,3.0,6.0,94,0.00,,,0.01,0,Wunderground v.1.15,2013-05-11 08:31:00,
2013-05-11 04:36:00,60.9,59.2,29.85,NNW,342,2.0,6.0,94,0.00,,,0.01,0,Wunderground v.1.15,2013-05-11 08:36:00,
2013-05-11 04:41:00,60.8,59.1,29.85,NNE,12,4.0,8.0,94,0.00,,,0.01,0,Wunderground v.1.15,2013-05-11 08:41:00,
2013-05-11 04:46:00,60.5,58.8,29.86,North,360,4.0,8.0,94,0.00,,,0.01,0,Wunderground v.1.15,2013-05-11 08:46:00,
2013-05-11 04:51:00,60.3,58.3,29.86,North,355,4.0,8.0,93,0.00,,,0.01,0,Wunderground v.1.15,2013-05-11 08:51:00,
2013-05-11 04:56:00,60.1,58.1,29.86,North,9,2.0,8.0,93,0.00,,,0.01,0,Wunderground v.1.15,2013-05-11 08:56:00,
2013-05-11 05:01:00,59.9,58.2,29.86,NNE,26,5.0,8.0,94,0.00,,,0.01,0,Wunderground v.1.15,2013-05-11 09:01:00,
2013-05-11 05:06:00,59.8,57.8,29.86,NNE,22,6.0,8.0,93,0.00,,,0.01,0,Wunderground v.1.15,2013-05-11 09:06:00,
2013-05-11 05:11:00,59.6,57.6,29.86,NNE,30,5.0,7.0,93,0.00,,,0.01,0,Wunderground v.1.15,2013-05-11 09:11:00,
2013-05-11 05:16:00,59.5,57.8,29.86,NNE,21,4.0,7.0,94,0.00,,,0.01,0,Wunderground v.1.15,2013-05-11 09:16:00,
2013-05-11 05:21:00,59.4,57.7,29.86,North,360,2.0,6.0,94,0.00,,,0.01,0,Wunderground v.1.15,2013-05-11 09:21:00,
2013-05-11 05:26:00,59.3,57.6,29.86,NNW,342,5.0,8.0,94,0.00,,,0.01,0,Wunderground v.1.15,2013-05-11 09:26:00,
2013-05-11 05:31:00,59.0,57.0,29.86,North,360,7.0,11.0,93,0.00,,,0.01,0,Wunderground v.1.15,2013-05-11 09:31:00,
2013-05-11 05:36:00,58.6,56.6,29.86,NE,36,5.0,11.0,93,0.00,,,0.01,0,Wunderground v.1.15,2013-05-11 09:36:00,
2013-05-11 05:41:00,58.1,55.8,29.87,NE,39,8.0,11.0,92,0.00,,,0.01,0,Wunderground v.1.15,2013-05-11 09:41:00,
2013-05-11 05:46:00,57.3,55.0,29.87,NNE,14,9.0,13.0,92,0.00,,,0.01,0,Wunderground v.1.15,2013-05-11 09:46:00,
2013-05-11 05:51:00,56.9,54.6,29.87,NNE,29,7.0,12.0,92,0.00,,,0.01,0,Wunderground v.1.15,2013-05-11 09:51:00,
2013-05-11 05:56:00,56.7,54.7,29.87,NNE,20,5.0,12.0,93,0.00,,,0.01,0,Wunderground v.1.15,2013-05-11 09:56:00,
2013-05-11 06:01:00,56.6,54.6,29.86,NNE,28,6.0,9.0,93,0.00,,,0.01,0,Wunderground v.1.15,2013-05-11 10:01:00,
2013-05-11 06:06:00,56.4,54.4,29.87,North,350,6.0,9.0,93,0.00,,,0.01,0,Wunderground v.1.15,2013-05-11 10:06:00,
2013-05-11 06:11:00,56.4,54.4,29.87,NNW,343,4.0,7.0,93,0.00,,,0.01,0,Wunderground v.1.15,2013-05-11 10:11:00,
2013-05-11 06:16:00,56.3,54.3,29.86,North,351,2.0,7.0,93,0.00,,,0.01,0,Wunderground v.1.15,2013-05-11 10:16:00,
2013-05-11 06:21:00,56.3,54.3,29.87,NNW,328,4.0,6.0,93,0.00,,,0.01,0,Wunderground v.1.15,2013-05-11 10:21:00,
2013-05-11 06:26:00,56.2,54.2,29.88,NNW,329,7.0,8.0,93,0.00,,,0.01,0,Wunderground v.1.15,2013-05-11 10:26:00,
2013-05-11 06:31:00,56.2,54.2,29.88,NNW,347,4.0,6.0,93,0.00,,,0.01,0,Wunderground v.1.15,2013-05-11 10:31:00,
2013-05-11 06:36:00,56.2,54.2,29.88,NNW,334,4.0,6.0,93,0.00,,,0.01,0,Wunderground v.1.15,2013-05-11 10:36:00,
2013-05-11 06:42:00,56.2,54.2,29.88,North,5,5.0,9.0,93,0.00,,,0.01,0,Wunderground v.1.15,2013-05-11 10:42:00,
2013-05-11 06:47:00,56.1,54.1,29.88,NW,315,4.0,9.0,93,0.00,,,0.01,0,Wunderground v.1.15,2013-05-11 10:47:00,
2013-05-11 06:52:00,56.0,54.0,29.88,NNE,24,7.0,8.0,93,0.00,,,0.01,0,Wunderground v.1.15,2013-05-11 10:52:00,
2013-05-11 06:57:00,56.0,54.0,29.88,NNW,334,4.0,8.0,93,0.00,,,0.01,5,Wunderground v.1.15,2013-05-11 10:57:00,
2013-05-11 07:02:00,55.9,53.9,29.88,NNE,12,3.0,6.0,93,0.00,,,0.01,5,Wunderground v.1.15,2013-05-11 11:02:00,
2013-05-11 07:07:00,55.8,53.8,29.88,North,5,4.0,7.0,93,0.00,,,0.01,7,Wunderground v.1.15,2013-05-11 11:07:00,
2013-05-11 07:12:00,55.8,54.1,29.89,North,355,1.0,5.0,94,0.00,,,0.01,11,Wunderground v.1.15,2013-05-11 11:12:00,
2013-05-11 07:17:00,55.7,54.0,29.89,NNW,327,3.0,6.0,94,0.00,,,0.01,9,Wunderground v.1.15,2013-05-11 11:17:00,
2013-05-11 07:22:00,55.6,53.9,29.89,NNW,336,5.0,9.0,94,0.00,,,0.01,7,Wunderground v.1.15,2013-05-11 11:22:00,
2013-05-11 07:27:00,55.4,53.7,29.89,NNE,30,7.0,11.0,94,0.00,,,0.01,7,Wunderground v.1.15,2013-05-11 11:27:00,
2013-05-11 07:32:00,55.0,53.0,29.89,NE,42,6.0,11.0,93,0.00,,,0.01,9,Wunderground v.1.15,2013-05-11 11:32:00,
2013-05-11 07:37:00,54.5,52.5,29.89,NE,40,8.0,13.0,93,0.00,,,0.01,16,Wunderground v.1.15,2013-05-11 11:37:00,
2013-05-11 07:42:00,54.3,52.3,29.89,NNE,30,6.0,10.0,93,0.00,,,0.01,18,Wunderground v.1.15,2013-05-11 11:42:00,
2013-05-11 07:47:00,54.2,52.2,29.89,NNE,26,7.0,10.0,93,0.00,,,0.01,25,Wunderground v.1.15,2013-05-11 11:47:00,
2013-05-11 07:52:00,54.1,52.1,29.89,NNE,15,3.0,7.0,93,0.00,,,0.01,16,Wunderground v.1.15,2013-05-11 11:52:00,
2013-05-11 07:57:00,54.1,52.1,29.89,NNE,29,5.0,7.0,93,0.00,,,0.01,30,Wunderground v.1.15,2013-05-11 11:57:00,
2013-05-11 08:02:00,54.2,52.2,29.89,North,5,1.0,5.0,93,0.00,,,0.01,32,Wunderground v.1.15,2013-05-11 12:02:00,
2013-05-11 08:07:00,54.2,51.9,29.89,NE,37,6.0,6.0,92,0.00,,,0.01,39,Wunderground v.1.15,2013-05-11 12:07:00,
2013-05-11 08:12:00,54.1,51.8,29.89,NE,35,3.0,7.0,92,0.00,,,0.01,33,Wunderground v.1.15,2013-05-11 12:12:00,
2013-05-11 08:17:00,54.2,52.2,29.90,NNE,33,4.0,7.0,93,0.00,,,0.01,37,Wunderground v.1.15,2013-05-11 12:17:00,
2013-05-11 08:22:00,54.1,51.8,29.90,NNE,32,2.0,6.0,92,0.00,,,0.01,40,Wunderground v.1.15,2013-05-11 12:22:00,
2013-05-11 08:27:00,54.2,51.9,29.90,NNE,32,4.0,6.0,92,0.00,,,0.01,46,Wunderground v.1.15,2013-05-11 12:27:00,
2013-05-11 08:32:00,54.1,51.8,29.90,NE,38,3.0,8.0,92,0.00,,,0.01,54,Wunderground v.1.15,2013-05-11 12:32:00,
2013-05-11 08:37:00,54.2,51.9,29.90,NNW,348,2.0,8.0,92,0.00,,,0.01,53,Wunderground v.1.15,2013-05-11 12:37:00,
2013-05-11 08:42:00,54.2,51.6,29.90,NNE,29,3.0,6.0,91,0.00,,,0.01,60,Wunderground v.1.15,2013-05-11 12:42:00,
2013-05-11 08:47:00,54.2,51.6,29.91,NNE,17,5.0,7.0,91,0.00,,,0.01,67,Wunderground v.1.15,2013-05-11 12:47:00,
2013-05-11 08:52:00,54.2,51.6,29.91,North,9,3.0,5.0,91,0.00,,,0.01,72,Wunderground v.1.15,2013-05-11 12:52:00,
2013-05-11 08:57:00,54.2,51.6,29.91,NNW,334,4.0,5.0,91,0.00,,,0.01,77,Wunderground v.1.15,2013-05-11 12:57:00,
2013-05-11 09:02:00,54.2,51.6,29.91,NNW,342,1.0,6.0,91,0.00,,,0.01,123,Wunderground v.1.15,2013-05-11 13:02:00,
2013-05-11 09:07:00,54.3,51.7,29.91,NW,319,3.0,6.0,91,0.00,,,0.01,74,Wunderground v.1.15,2013-05-11 13:07:00,
2013-05-11 09:12:00,54.4,51.8,29.92,North,355,4.0,6.0,91,0.00,,,0.01,93,Wunderground v.1.15,2013-05-11 13:12:00,
2013-05-11 09:17:00,54.3,51.7,29.92,NNW,333,2.0,7.0,91,0.00,,,0.01,135,Wunderground v.1.15,2013-05-11 13:17:00,
2013-05-11 09:22:00,54.4,51.5,29.92,North,5,1.0,7.0,90,0.00,,,0.01,130,Wunderground v.1.15,2013-05-11 13:22:00,
2013-05-11 09:27:00,54.5,51.9,29.92,North,5,4.0,7.0,91,0.00,,,0.01,105,Wunderground v.1.15,2013-05-11 13:27:00,
2013-05-11 09:32:00,54.5,51.6,29.91,North,360,5.0,7.0,90,0.00,,,0.01,148,Wunderground v.1.15,2013-05-11 13:32:00,
2013-05-11 09:37:00,54.6,51.7,29.92,NNW,342,6.0,8.0,90,0.00,,,0.01,104,Wunderground v.1.15,2013-05-11 13:37:00,
2013-05-11 09:42:00,54.5,51.3,29.91,North,360,6.0,7.0,89,0.00,,,0.01,120,Wunderground v.1.15,2013-05-11 13:42:00,
2013-05-11 09:47:00,54.4,51.2,29.91,NNW,344,3.0,7.0,89,0.00,,,0.01,149,Wunderground v.1.15,2013-05-11 13:47:00,
2013-05-11 09:52:00,54.4,51.2,29.91,NNW,332,6.0,7.0,89,0.00,,,0.01,165,Wunderground v.1.15,2013-05-11 13:52:00,
2013-05-11 09:57:00,54.6,51.4,29.91,North,360,3.0,7.0,89,0.00,,,0.01,151,Wunderground v.1.15,2013-05-11 13:57:00,
2013-05-11 10:02:00,54.6,51.4,29.91,NNW,348,2.0,6.0,89,0.00,,,0.01,144,Wunderground v.1.15,2013-05-11 14:02:00,
2013-05-11 10:07:00,54.7,51.5,29.91,NW,323,2.0,6.0,89,0.00,,,0.01,163,Wunderground v.1.15,2013-05-11 14:07:00,
2013-05-11 10:12:00,54.7,51.5,29.91,NNW,345,2.0,5.0,89,0.00,,,0.01,151,Wunderground v.1.15,2013-05-11 14:12:00,
2013-05-11 10:17:00,55.0,51.8,29.91,North,360,4.0,6.0,89,0.00,,,0.01,193,Wunderground v.1.15,2013-05-11 14:17:00,
2013-05-11 10:22:00,55.3,51.8,29.91,NNE,26,3.0,7.0,88,0.00,,,0.01,281,Wunderground v.1.15,2013-05-11 14:22:00,
2013-05-11 10:27:00,55.6,51.8,29.91,NNW,346,3.0,7.0,87,0.00,,,0.01,207,Wunderground v.1.15,2013-05-11 14:27:00,
2013-05-11 10:32:00,55.9,52.1,29.91,WNW,302,4.0,5.0,87,0.00,,,0.01,132,Wunderground v.1.15,2013-05-11 14:32:00,
2013-05-11 10:37:00,55.6,51.8,29.91,North,351,3.0,7.0,87,0.00,,,0.01,125,Wunderground v.1.15,2013-05-11 14:37:00,
2013-05-11 10:42:00,55.5,51.7,29.91,NNW,330,4.0,6.0,87,0.00,,,0.01,137,Wunderground v.1.15,2013-05-11 14:42:00,
2013-05-11 10:47:00,55.4,51.6,29.91,NNE,12,3.0,7.0,87,0.00,,,0.01,127,Wunderground v.1.15,2013-05-11 14:47:00,
2013-05-11 10:52:00,55.4,51.6,29.91,NW,314,5.0,8.0,87,0.00,,,0.01,120,Wunderground v.1.15,2013-05-11 14:52:00,
2013-05-11 10:55:00,55.3,51.2,29.91,NNW,327,6.0,8.0,86,0.00,,,0.01,118,Wunderground v.1.15,2013-05-11 14:55:00,
2013-05-11 11:01:00,55.4,51.3,29.91,NW,315,5.0,6.0,86,0.00,,,0.01,165,Wunderground v.1.15,2013-05-11 15:01:00,
2013-05-11 11:05:00,55.5,51.7,29.92,NW,321,5.0,7.0,87,0.00,,,0.01,229,Wunderground v.1.15,2013-05-11 15:05:00,
2013-05-11 11:10:00,55.9,51.8,29.92,NW,325,5.0,8.0,86,0.00,,,0.01,257,Wunderground v.1.15,2013-05-11 15:10:00,
2013-05-11 11:15:00,56.3,51.8,29.92,North,350,10.0,10.0,85,0.00,,,0.01,362,Wunderground v.1.15,2013-05-11 15:15:00,
2013-05-11 11:21:00,56.5,51.7,29.91,NNW,341,6.0,9.0,84,0.00,,,0.01,371,Wunderground v.1.15,2013-05-11 15:21:00,
2013-05-11 11:26:00,56.6,51.8,29.92,NNW,329,6.0,11.0,84,0.00,,,0.01,322,Wunderground v.1.15,2013-05-11 15:26:00,
2013-05-11 11:31:00,56.7,51.6,29.92,NNW,329,4.0,10.0,83,0.00,,,0.01,211,Wunderground v.1.15,2013-05-11 15:31:00,
2013-05-11 11:36:00,56.6,51.5,29.92,WNW,302,5.0,10.0,83,0.00,,,0.01,207,Wunderground v.1.15,2013-05-11 15:36:00,
2013-05-11 11:41:00,56.5,51.4,29.92,NNW,328,8.0,9.0,83,0.00,,,0.01,172,Wunderground v.1.15,2013-05-11 15:41:00,
2013-05-11 11:46:00,56.5,51.4,29.92,North,349,6.0,9.0,83,0.00,,,0.01,294,Wunderground v.1.15,2013-05-11 15:46:00,
2013-05-11 11:51:00,56.4,51.0,29.93,NW,323,7.0,9.0,82,0.00,,,0.01,218,Wunderground v.1.15,2013-05-11 15:51:00,
2013-05-11 11:56:00,56.5,51.4,29.93,WNW,302,5.0,9.0,83,0.00,,,0.01,167,Wunderground v.1.15,2013-05-11 15:56:00,
2013-05-11 12:01:00,56.6,51.5,29.93,NNW,327,3.0,7.0,83,0.00,,,0.01,171,Wunderground v.1.15,2013-05-11 16:01:00,
2013-05-11 12:06:00,56.6,51.5,29.92,WNW,286,6.0,9.0,83,0.00,,,0.01,185,Wunderground v.1.15,2013-05-11 16:06:00,
2013-05-11 12:11:00,56.7,51.6,29.92,NW,325,6.0,8.0,83,0.00,,,0.01,121,Wunderground v.1.15,2013-05-11 16:11:00,
2013-05-11 12:16:00,56.8,51.7,29.92,NW,311,7.0,8.0,83,0.00,,,0.01,294,Wunderground v.1.15,2013-05-11 16:16:00,
2013-05-11 12:21:00,57.2,51.8,29.92,WNW,297,3.0,10.0,82,0.00,,,0.01,343,Wunderground v.1.15,2013-05-11 16:21:00,
2013-05-11 12:26:00,57.6,51.8,29.92,NW,319,4.0,11.0,81,0.00,,,0.01,371,Wunderground v.1.15,2013-05-11 16:26:00,
2013-05-11 12:31:00,57.6,51.8,29.92,North,355,11.0,12.0,81,0.00,,,0.01,244,Wunderground v.1.15,2013-05-11 16:31:00,
2013-05-11 12:36:00,57.2,51.4,29.92,NW,309,7.0,12.0,81,0.00,,,0.01,371,Wunderground v.1.15,2013-05-11 16:36:00,
2013-05-11 12:41:00,57.3,51.2,29.92,North,355,7.0,12.0,80,0.00,,,0.01,258,Wunderground v.1.15,2013-05-11 16:41:00,
2013-05-11 12:46:00,57.2,51.4,29.92,WNW,296,6.0,12.0,81,0.00,,,0.01,262,Wunderground v.1.15,2013-05-11 16:46:00,
2013-05-11 12:51:00,57.7,51.6,29.92,NW,323,3.0,9.0,80,0.00,,,0.01,287,Wunderground v.1.15,2013-05-11 16:51:00,
2013-05-11 12:56:00,57.8,51.3,29.92,WNW,292,4.0,10.0,79,0.00,,,0.01,381,Wunderground v.1.15,2013-05-11 16:56:00,
2013-05-11 13:01:00,57.9,51.8,29.92,NW,309,4.0,7.0,80,0.00,,,0.01,362,Wunderground v.1.15,2013-05-11 17:01:00,
2013-05-11 13:06:00,58.3,51.5,29.92,WNW,302,4.0,10.0,78,0.00,,,0.01,287,Wunderground v.1.15,2013-05-11 17:06:00,
2013-05-11 13:11:00,58.3,51.8,29.92,WNW,296,8.0,8.0,79,0.00,,,0.01,183,Wunderground v.1.15,2013-05-11 17:11:00,
2013-05-11 13:16:00,58.2,51.7,29.92,NNW,331,8.0,12.0,79,0.00,,,0.01,246,Wunderground v.1.15,2013-05-11 17:16:00,
2013-05-11 13:21:00,58.0,51.9,29.92,NW,311,5.0,9.0,80,0.00,,,0.01,278,Wunderground v.1.15,2013-05-11 17:21:00,
2013-05-11 13:26:00,57.8,51.3,29.92,WNW,288,7.0,9.0,79,0.00,,,0.01,230,Wunderground v.1.15,2013-05-11 17:26:00,
2013-05-11 13:31:00,57.7,51.2,29.92,NW,313,6.0,9.0,79,0.00,,,0.01,192,Wunderground v.1.15,2013-05-11 17:31:00,
2013-05-11 13:36:00,57.5,51.7,29.93,NW,312,4.0,10.0,81,0.00,,,0.01,190,Wunderground v.1.15,2013-05-11 17:36:00,
2013-05-11 13:41:00,57.5,51.4,29.93,WNW,298,6.0,10.0,80,0.00,,,0.01,236,Wunderground v.1.15,2013-05-11 17:41:00,
2013-05-11 13:46:00,57.6,51.5,29.92,WNW,300,8.0,11.0,80,0.00,,,0.01,424,Wunderground v.1.15,2013-05-11 17:46:00,
2013-05-11 13:51:00,58.1,52.0,29.92,West,279,8.0,10.0,80,0.00,,,0.01,473,Wunderground v.1.15,2013-05-11 17:51:00,
2013-05-11 13:56:00,58.5,51.7,29.92,NNW,342,8.0,13.0,78,0.00,,,0.01,392,Wunderground v.1.15,2013-05-11 17:56:00,
2013-05-11 14:01:00,58.5,52.0,29.92,NW,321,6.0,14.0,79,0.00,,,0.01,476,Wunderground v.1.15,2013-05-11 18:01:00,
2013-05-11 14:06:00,59.0,52.1,29.92,WNW,286,9.0,14.0,78,0.00,,,0.01,483,Wunderground v.1.15,2013-05-11 18:06:00,
2013-05-11 14:11:00,59.3,52.4,29.92,NNW,329,9.0,11.0,78,0.00,,,0.01,452,Wunderground v.1.15,2013-05-11 18:11:00,
2013-05-11 14:16:00,59.2,52.3,29.92,NW,320,4.0,11.0,78,0.00,,,0.01,585,Wunderground v.1.15,2013-05-11 18:16:00,
2013-05-11 14:21:00,59.3,52.1,29.92,WNW,300,8.0,13.0,77,0.00,,,0.01,527,Wunderground v.1.15,2013-05-11 18:21:00,
2013-05-11 14:26:00,59.0,52.1,29.92,NW,319,3.0,13.0,78,0.00,,,0.01,489,Wunderground v.1.15,2013-05-11 18:26:00,
2013-05-11 14:31:00,59.6,52.0,29.92,NW,316,5.0,11.0,76,0.00,,,0.02,628,Wunderground v.1.15,2013-05-11 18:31:00,
2013-05-11 14:36:00,59.8,52.6,29.92,WNW,300,4.0,11.0,77,0.00,,,0.02,526,Wunderground v.1.15,2013-05-11 18:36:00,
2013-05-11 14:41:00,59.9,51.6,29.92,NNW,329,7.0,13.0,74,0.00,,,0.02,178,Wunderground v.1.15,2013-05-11 18:41:00,
2013-05-11 14:46:00,58.9,51.3,29.92,NW,316,8.0,14.0,76,0.00,,,0.02,113,Wunderground v.1.15,2013-05-11 18:46:00,
2013-05-11 14:51:00,58.2,51.4,29.92,NW,309,5.0,10.0,78,0.00,,,0.02,251,Wunderground v.1.15,2013-05-11 18:51:00,
2013-05-11 14:56:00,58.1,51.6,29.92,NNW,333,4.0,10.0,79,0.00,,,0.02,380,Wunderground v.1.15,2013-05-11 18:56:00,
2013-05-11 15:01:00,58.5,51.3,29.92,NW,320,7.0,11.0,77,0.00,,,0.02,694,Wunderground v.1.15,2013-05-11 19:01:00,
2013-05-11 15:06:00,58.7,51.5,29.92,NW,304,7.0,11.0,77,0.00,,,0.02,204,Wunderground v.1.15,2013-05-11 19:06:00,
2013-05-11 15:11:00,58.4,51.2,29.92,NW,307,10.0,12.0,77,0.00,,,0.02,137,Wunderground v.1.15,2013-05-11 19:11:00,
2013-05-11 15:16:00,58.0,51.2,29.92,WNW,288,7.0,14.0,78,0.00,,,0.02,113,Wunderground v.1.15,2013-05-11 19:16:00,
2013-05-11 15:21:00,57.6,51.1,29.92,WNW,292,8.0,10.0,79,0.00,,,0.02,243,Wunderground v.1.15,2013-05-11 19:21:00,
2013-05-11 15:26:00,57.9,51.4,29.92,NNW,328,7.0,10.0,79,0.00,,,0.02,441,Wunderground v.1.15,2013-05-11 19:26:00,
2013-05-11 15:31:00,58.7,51.9,29.92,North,355,11.0,11.0,78,0.00,,,0.02,577,Wunderground v.1.15,2013-05-11 19:31:00,
2013-05-11 15:36:00,59.9,51.6,29.92,NW,320,6.0,11.0,74,0.00,,,0.02,383,Wunderground v.1.15,2013-05-11 19:36:00,
2013-05-11 15:41:00,59.9,51.2,29.92,NW,325,7.0,7.0,73,0.00,,,0.02,258,Wunderground v.1.15,2013-05-11 19:41:00,
2013-05-11 15:46:00,59.8,51.9,29.92,WNW,286,8.0,10.0,75,0.00,,,0.02,248,Wunderground v.1.15,2013-05-11 19:46:00,
2013-05-11 15:51:00,59.5,51.6,29.92,North,355,5.0,16.0,75,0.00,,,0.02,320,Wunderground v.1.15,2013-05-11 19:51:00,
2013-05-11 15:56:00,58.7,51.2,29.92,NW,308,7.0,16.0,76,0.00,,,0.02,396,Wunderground v.1.15,2013-05-11 19:56:00,
2013-05-11 16:01:00,58.9,51.7,29.92,NW,309,7.0,13.0,77,0.00,,,0.02,519,Wunderground v.1.15,2013-05-11 20:01:00,
2013-05-11 16:06:00,59.3,51.4,29.92,NNW,347,8.0,13.0,75,0.00,,,0.02,519,Wunderground v.1.15,2013-05-11 20:06:00,
2013-05-11 16:11:00,59.3,50.6,29.92,NNW,327,8.0,10.0,73,0.00,,,0.02,223,Wunderground v.1.15,2013-05-11 20:11:00,
2013-05-11 16:16:00,59.2,51.3,29.92,NW,319,5.0,10.0,75,0.00,,,0.02,141,Wunderground v.1.15,2013-05-11 20:16:00,
2013-05-11 16:21:00,59.1,50.8,29.92,WNW,282,7.0,11.0,74,0.00,,,0.02,399,Wunderground v.1.15,2013-05-11 20:21:00,
2013-05-11 16:26:00,59.3,50.6,29.92,WNW,286,5.0,11.0,73,0.00,,,0.02,325,Wunderground v.1.15,2013-05-11 20:26:00,
2013-05-11 16:31:00,59.8,51.1,29.92,NW,323,7.0,11.0,73,0.00,,,0.02,294,Wunderground v.1.15,2013-05-11 20:31:00,
2013-05-11 16:36:00,59.8,50.4,29.92,NNW,331,4.0,13.0,71,0.00,,,0.02,267,Wunderground v.1.15,2013-05-11 20:36:00,
2013-05-11 16:41:00,59.7,50.3,29.92,WNW,296,7.0,12.0,71,0.00,,,0.02,199,Wunderground v.1.15,2013-05-11 20:41:00,
2013-05-11 16:47:00,59.4,50.7,29.92,NW,314,3.0,12.0,73,0.00,,,0.02,329,Wunderground v.1.15,2013-05-11 20:47:00,
2013-05-11 16:52:00,60.0,50.9,29.92,WNW,289,5.0,10.0,72,0.00,,,0.02,390,Wunderground v.1.15,2013-05-11 20:52:00,
2013-05-11 16:57:00,60.2,50.8,29.92,North,360,7.0,10.0,71,0.00,,,0.02,902,Wunderground v.1.15,2013-05-11 20:57:00,
2013-05-11 17:02:00,60.5,50.7,29.92,NNE,15,7.0,12.0,70,0.00,,,0.02,345,Wunderground v.1.15,2013-05-11 21:02:00,
2013-05-11 17:07:00,60.3,50.1,29.92,WNW,292,7.0,12.0,69,0.00,,,0.02,301,Wunderground v.1.15,2013-05-11 21:07:00,
2013-05-11 17:12:00,60.8,50.6,29.92,North,355,6.0,7.0,69,0.00,,,0.02,276,Wunderground v.1.15,2013-05-11 21:12:00,
2013-05-11 17:17:00,60.5,50.3,29.92,NW,308,7.0,11.0,69,0.00,,,0.02,302,Wunderground v.1.15,2013-05-11 21:17:00,
2013-05-11 17:22:00,60.5,51.8,29.93,WNW,292,4.0,9.0,73,0.00,,,0.02,257,Wunderground v.1.15,2013-05-11 21:22:00,
2013-05-11 17:27:00,60.4,51.0,29.93,West,281,4.0,12.0,71,0.00,,,0.02,250,Wunderground v.1.15,2013-05-11 21:27:00,
2013-05-11 17:32:00,60.3,50.9,29.93,NW,308,5.0,11.0,71,0.00,,,0.02,448,Wunderground v.1.15,2013-05-11 21:32:00,
2013-05-11 17:37:00,60.6,50.8,29.93,WNW,296,5.0,11.0,70,0.00,,,0.02,271,Wunderground v.1.15,2013-05-11 21:37:00,
2013-05-11 17:42:00,60.5,50.7,29.92,NW,321,10.0,10.0,70,0.00,,,0.02,301,Wunderground v.1.15,2013-05-11 21:42:00,
2013-05-11 17:47:00,60.7,50.9,29.93,WNW,295,8.0,11.0,70,0.00,,,0.02,207,Wunderground v.1.15,2013-05-11 21:47:00,
2013-05-11 17:52:00,60.6,50.8,29.93,West,279,6.0,12.0,70,0.00,,,0.02,527,Wunderground v.1.15,2013-05-11 21:52:00,
2013-05-11 17:57:00,60.9,50.7,29.93,West,277,5.0,12.0,69,0.00,,,0.02,290,Wunderground v.1.15,2013-05-11 21:57:00,
2013-05-11 18:02:00,60.7,50.5,29.92,WNW,294,4.0,9.0,69,0.00,,,0.02,156,Wunderground v.1.15,2013-05-11 22:02:00,
2013-05-11 18:07:00,60.2,50.8,29.92,NW,315,3.0,9.0,71,0.00,,,0.02,181,Wunderground v.1.15,2013-05-11 22:07:00,
2013-05-11 18:12:00,60.1,50.3,29.92,WNW,303,4.0,9.0,70,0.00,,,0.02,290,Wunderground v.1.15,2013-05-11 22:12:00,
2013-05-11 18:17:00,60.5,50.3,29.92,WNW,293,7.0,9.0,69,0.00,,,0.02,508,Wunderground v.1.15,2013-05-11 22:17:00,
2013-05-11 18:22:00,60.9,50.7,29.91,WNW,300,3.0,7.0,69,0.00,,,0.02,487,Wunderground v.1.15,2013-05-11 22:22:00,
2013-05-11 18:27:00,61.4,50.7,29.91,West,276,8.0,8.0,68,0.00,,,0.02,438,Wunderground v.1.15,2013-05-11 22:27:00,
2013-05-11 18:32:00,61.4,50.3,29.91,West,277,6.0,12.0,67,0.00,,,0.02,401,Wunderground v.1.15,2013-05-11 22:32:00,
2013-05-11 18:37:00,61.1,50.5,29.92,WNW,287,5.0,12.0,68,0.00,,,0.02,359,Wunderground v.1.15,2013-05-11 22:37:00,
2013-05-11 18:42:00,61.0,50.4,29.92,WNW,295,7.0,9.0,68,0.00,,,0.02,218,Wunderground v.1.15,2013-05-11 22:42:00,
2013-05-11 18:47:00,61.0,50.8,29.92,WNW,282,4.0,9.0,69,0.00,,,0.02,262,Wunderground v.1.15,2013-05-11 22:47:00,
2013-05-11 18:52:00,60.7,50.1,29.92,West,278,5.0,9.0,68,0.00,,,0.02,139,Wunderground v.1.15,2013-05-11 22:52:00,
2013-05-11 18:57:00,60.5,50.3,29.92,West,273,5.0,9.0,69,0.00,,,0.02,221,Wunderground v.1.15,2013-05-11 22:57:00,
2013-05-11 19:02:00,60.3,50.5,29.92,NW,305,6.0,8.0,70,0.00,,,0.02,127,Wunderground v.1.15,2013-05-11 23:02:00,
2013-05-11 19:07:00,60.2,50.4,29.92,WNW,298,6.0,9.0,70,0.00,,,0.02,151,Wunderground v.1.15,2013-05-11 23:07:00,
2013-05-11 19:12:00,60.3,50.5,29.92,West,272,5.0,10.0,70,0.00,,,0.02,93,Wunderground v.1.15,2013-05-11 23:12:00,
2013-05-11 19:17:00,60.4,50.2,29.91,WNW,284,5.0,10.0,69,0.00,,,0.02,185,Wunderground v.1.15,2013-05-11 23:17:00,
2013-05-11 19:22:00,60.3,50.5,29.91,SW,236,5.0,7.0,70,0.00,,,0.02,155,Wunderground v.1.15,2013-05-11 23:22:00,
2013-05-11 19:27:00,60.2,50.4,29.91,West,263,6.0,7.0,70,0.00,,,0.02,135,Wunderground v.1.15,2013-05-11 23:27:00,
2013-05-11 19:32:00,60.0,50.2,29.91,West,281,6.0,7.0,70,0.00,,,0.02,121,Wunderground v.1.15,2013-05-11 23:32:00,
2013-05-11 19:37:00,59.9,50.5,29.90,WSW,254,4.0,7.0,71,0.00,,,0.02,111,Wunderground v.1.15,2013-05-11 23:37:00,
2013-05-11 19:42:00,59.8,50.0,29.91,WNW,282,3.0,6.0,70,0.00,,,0.02,91,Wunderground v.1.15,2013-05-11 23:42:00,
2013-05-11 19:47:00,59.7,50.3,29.91,West,270,2.0,6.0,71,0.00,,,0.02,77,Wunderground v.1.15,2013-05-11 23:47:00,
2013-05-11 19:52:00,59.6,50.6,29.91,West,265,3.0,5.0,72,0.00,,,0.02,62,Wunderground v.1.15,2013-05-11 23:52:00,
2013-05-11 19:57:00,59.4,50.4,29.91,West,276,2.0,6.0,72,0.00,,,0.02,40,Wunderground v.1.15,2013-05-11 23:57:00,
2013-05-11 20:02:00,59.2,50.5,29.91,WNW,288,5.0,5.0,73,0.00,,,0.02,42,Wunderground v.1.15,2013-05-12 00:02:00,
2013-05-11 20:07:00,59.0,50.4,29.92,West,276,3.0,7.0,73,0.00,,,0.02,39,Wunderground v.1.15,2013-05-12 00:07:00,
2013-05-11 20:12:00,58.8,50.5,29.91,West,275,4.0,5.0,74,0.00,,,0.02,26,Wunderground v.1.15,2013-05-12 00:12:00,
2013-05-11 20:17:00,58.6,50.7,29.91,West,263,2.0,5.0,75,0.00,,,0.02,19,Wunderground v.1.15,2013-05-12 00:17:00,
2013-05-11 20:22:00,58.3,50.4,29.91,SW,236,4.0,5.0,75,0.00,,,0.02,14,Wunderground v.1.15,2013-05-12 00:22:00,
2013-05-11 20:27:00,58.1,50.2,29.91,WSW,240,4.0,5.0,75,0.00,,,0.02,11,Wunderground v.1.15,2013-05-12 00:27:00,
2013-05-11 20:32:00,57.8,50.3,29.91,WSW,241,3.0,4.0,76,0.00,,,0.02,7,Wunderground v.1.15,2013-05-12 00:32:00,
2013-05-11 20:37:00,57.6,50.4,29.91,WSW,250,0.0,4.0,77,0.00,,,0.02,0,Wunderground v.1.15,2013-05-12 00:37:00,
2013-05-11 20:42:00,57.1,50.3,29.91,WSW,246,4.0,6.0,78,0.00,,,0.02,0,Wunderground v.1.15,2013-05-12 00:42:00,
2013-05-11 20:47:00,57.0,50.2,29.92,WSW,257,4.0,6.0,78,0.00,,,0.02,0,Wunderground v.1.15,2013-05-12 00:47:00,
2013-05-11 20:52:00,56.8,50.4,29.91,SW,235,3.0,5.0,79,0.00,,,0.02,0,Wunderground v.1.15,2013-05-12 00:52:00,
2013-05-11 20:57:00,56.6,50.5,29.92,WSW,242,4.0,5.0,80,0.00,,,0.02,0,Wunderground v.1.15,2013-05-12 00:57:00,
2013-05-11 21:02:00,56.4,50.3,29.92,WSW,241,2.0,5.0,80,0.00,,,0.02,0,Wunderground v.1.15,2013-05-12 01:02:00,
2013-05-11 21:07:00,56.4,50.3,29.92,WSW,242,3.0,5.0,80,0.00,,,0.02,0,Wunderground v.1.15,2013-05-12 01:07:00,
2013-05-11 21:12:00,56.4,50.6,29.92,WSW,246,3.0,5.0,81,0.00,,,0.02,0,Wunderground v.1.15,2013-05-12 01:12:00,
2013-05-11 21:17:00,56.5,50.7,29.92,WSW,239,3.0,6.0,81,0.00,,,0.02,0,Wunderground v.1.15,2013-05-12 01:17:00,
2013-05-11 21:22:00,56.5,50.7,29.92,WSW,248,3.0,5.0,81,0.00,,,0.02,0,Wunderground v.1.15,2013-05-12 01:22:00,
2013-05-11 21:27:00,56.4,50.6,29.92,WSW,239,5.0,5.0,81,0.00,,,0.02,0,Wunderground v.1.15,2013-05-12 01:27:00,
2013-05-11 21:32:00,56.4,50.6,29.92,WSW,240,3.0,6.0,81,0.00,,,0.02,0,Wunderground v.1.15,2013-05-12 01:32:00,
2013-05-11 21:37:00,56.5,50.7,29.92,WSW,244,1.0,6.0,81,0.00,,,0.02,0,Wunderground v.1.15,2013-05-12 01:37:00,
2013-05-11 21:42:00,56.5,50.7,29.92,WSW,251,3.0,5.0,81,0.00,,,0.02,0,Wunderground v.1.15,2013-05-12 01:42:00,
2013-05-11 21:47:00,56.5,51.1,29.93,WSW,248,4.0,5.0,82,0.00,,,0.02,0,Wunderground v.1.15,2013-05-12 01:47:00,
2013-05-11 21:52:00,56.5,51.1,29.93,West,261,3.0,5.0,82,0.00,,,0.02,0,Wunderground v.1.15,2013-05-12 01:52:00,
2013-05-11 21:57:00,56.5,51.1,29.94,WNW,294,2.0,5.0,82,0.00,,,0.02,0,Wunderground v.1.15,2013-05-12 01:57:00,
2013-05-11 22:02:00,56.4,51.6,29.95,NNW,329,3.0,5.0,84,0.00,,,0.02,0,Wunderground v.1.15,2013-05-12 02:02:00,
2013-05-11 22:07:00,56.1,51.7,29.95,WNW,298,3.0,5.0,85,0.00,,,0.02,0,Wunderground v.1.15,2013-05-12 02:07:00,
2013-05-11 22:12:00,55.7,51.6,29.95,WNW,288,3.0,5.0,86,0.00,,,0.02,0,Wunderground v.1.15,2013-05-12 02:12:00,
2013-05-11 22:17:00,55.5,51.7,29.95,West,268,5.0,7.0,87,0.00,,,0.02,0,Wunderground v.1.15,2013-05-12 02:17:00,
2013-05-11 22:22:00,55.4,51.6,29.95,WNW,286,2.0,7.0,87,0.00,,,0.02,0,Wunderground v.1.15,2013-05-12 02:22:00,
2013-05-11 22:27:00,55.4,51.9,29.95,West,279,5.0,7.0,88,0.00,,,0.02,0,Wunderground v.1.15,2013-05-12 02:27:00,
2013-05-11 22:32:00,55.3,51.5,29.95,WNW,289,6.0,7.0,87,0.00,,,0.02,0,Wunderground v.1.15,2013-05-12 02:32:00,
2013-05-11 22:37:00,55.3,51.8,29.96,WNW,285,2.0,7.0,88,0.00,,,0.02,0,Wunderground v.1.15,2013-05-12 02:37:00,
2013-05-11 22:42:00,55.2,51.7,29.96,WNW,284,6.0,7.0,88,0.00,,,0.02,0,Wunderground v.1.15,2013-05-12 02:42:00,
2013-05-11 22:47:00,55.1,51.6,29.96,West,279,6.0,7.0,88,0.00,,,0.02,0,Wunderground v.1.15,2013-05-12 02:47:00,
2013-05-11 22:53:00,55.1,51.6,29.96,WNW,288,4.0,6.0,88,0.00,,,0.02,0,Wunderground v.1.15,2013-05-12 02:53:00,
2013-05-11 22:58:00,55.1,51.6,29.96,NW,321,4.0,10.0,88,0.00,,,0.02,0,Wunderground v.1.15,2013-05-12 02:58:00,
2013-05-11 23:03:00,55.1,51.6,29.97,WNW,300,3.0,7.0,88,0.00,,,0.02,0,Wunderground v.1.15,2013-05-12 03:03:00,
2013-05-11 23:08:00,55.2,51.7,29.97,NW,306,8.0,10.0,88,0.00,,,0.02,0,Wunderground v.1.15,2013-05-12 03:08:00,
2013-05-11 23:13:00,55.2,51.4,29.97,NW,326,8.0,11.0,87,0.00,,,0.02,0,Wunderground v.1.15,2013-05-12 03:13:00,
2013-05-11 23:18:00,55.2,51.4,29.97,NW,317,4.0,11.0,87,0.00,,,0.02,0,Wunderground v.1.15,2013-05-12 03:18:00,
2013-05-11 23:23:00,55.1,51.0,29.97,NW,321,6.0,8.0,86,0.00,,,0.02,0,Wunderground v.1.15,2013-05-12 03:23:00,
2013-05-11 23:28:00,54.9,51.1,29.97,NNW,327,3.0,9.0,87,0.00,,,0.02,0,Wunderground v.1.15,2013-05-12 03:28:00,
2013-05-11 23:33:00,54.6,50.5,29.98,North,360,4.0,9.0,86,0.00,,,0.02,0,Wunderground v.1.15,2013-05-12 03:33:00,
2013-05-11 23:38:00,54.4,50.3,29.98,North,355,5.0,10.0,86,0.00,,,0.02,0,Wunderground v.1.15,2013-05-12 03:38:00,
2013-05-11 23:43:00,54.2,49.8,29.98,NNE,13,4.0,11.0,85,0.00,,,0.02,0,Wunderground v.1.15,2013-05-12 03:43:00,
2013-05-11 23:48:00,54.1,49.4,29.98,NNE,15,4.0,11.0,84,0.00,,,0.02,0,Wunderground v.1.15,2013-05-12 03:48:00,
2013-05-11 23:53:00,53.9,48.5,29.98,NNW,329,4.0,13.0,82,0.00,,,0.02,0,Wunderground v.1.15,2013-05-12 03:53:00,
2013-05-11 23:58:00,53.8,48.4,29.98,NNE,18,3.0,13.0,82,0.00,,,0.02,0,Wunderground v.1.15,2013-05-12 03:58:00,